sensor_id;sensor_type;location;lat;lon;timestamp;temperature;humidity
21849;DHT22;11089;49.852;19.700;2022-07-29T00:00:55;17.40;99.90
21849;DHT22;11089;49.852;19.700;2022-07-29T00:03:56;17.40;99.90
21849;DHT22;11089;49.852;19.700;2022-07-29T00:06:57;17.30;1.00
21849;DHT22;11089;49.852;19.700;2022-07-29T00:09:58;17.30;1.00
21849;DHT22;11089;49.852;19.700;2022-07-29T00:12:58;17.20;1.00
21849;DHT22;11089;49.852;19.700;2022-07-29T00:15:59;17.20;99.90
21849;DHT22;11089;49.852;19.700;2022-07-29T00:19:00;17.10;1.00
21849;DHT22;11089;49.852;19.700;2022-07-29T00:22:01;16.90;1.00
21849;DHT22;11089;49.852;19.700;2022-07-29T00:25:02;16.70;94.40
21849;DHT22;11089;49.852;19.700;2022-07-29T00:28:03;16.70;1.00
21849;DHT22;11089;49.852;19.700;2022-07-29T00:31:04;16.90;99.90
21849;DHT22;11089;49.852;19.700;2022-07-29T00:34:04;16.90;99.90
21849;DHT22;11089;49.852;19.700;2022-07-29T00:37:06;16.90;1.00
21849;DHT22;11089;49.852;19.700;2022-07-29T00:40:08;16.80;1.00
21849;DHT22;11089;49.852;19.700;2022-07-29T00:43:10;16.70;1.00
21849;DHT22;11089;49.852;19.700;2022-07-29T00:46:11;16.80;99.90
21849;DHT22;11089;49.852;19.700;2022-07-29T00:49:13;16.80;1.00
21849;DHT22;11089;49.852;19.700;2022-07-29T00:52:13;16.70;99.90
21849;DHT22;11089;49.852;19.700;2022-07-29T00:55:15;16.70;95.90
21849;DHT22;11089;49.852;19.700;2022-07-29T00:58:16;16.70;99.90
21849;DHT22;11089;49.852;19.700;2022-07-29T01:01:17;16.70;99.90
21849;DHT22;11089;49.852;19.700;2022-07-29T01:04:18;16.70;1.00
21849;DHT22;11089;49.852;19.700;2022-07-29T01:07:19;16.80;1.00
21849;DHT22;11089;49.852;19.700;2022-07-29T01:10:21;16.70;75.10
21849;DHT22;11089;49.852;19.700;2022-07-29T01:13:23;16.70;1.00
21849;DHT22;11089;49.852;19.700;2022-07-29T01:17:00;16.60;99.90
21849;DHT22;11089;49.852;19.700;2022-07-29T01:20:26;16.60;1.00
21849;DHT22;11089;49.852;19.700;2022-07-29T01:26:47;16.50;1.00
21849;DHT22;11089;49.852;19.700;2022-07-29T01:29:56;16.40;58.60
21849;DHT22;11089;49.852;19.700;2022-07-29T01:33:05;16.40;21.70
21849;DHT22;11089;49.852;19.700;2022-07-29T01:36:11;16.40;99.90
21849;DHT22;11089;49.852;19.700;2022-07-29T01:39:35;16.40;99.90
21849;DHT22;11089;49.852;19.700;2022-07-29T01:42:42;16.60;6.10
21849;DHT22;11089;49.852;19.700;2022-07-29T01:45:51;16.70;1.00
21849;DHT22;11089;49.852;19.700;2022-07-29T01:48:57;16.90;1.00
21849;DHT22;11089;49.852;19.700;2022-07-29T01:52:02;17.00;1.00
21849;DHT22;11089;49.852;19.700;2022-07-29T01:55:09;17.10;99.90
21849;DHT22;11089;49.852;19.700;2022-07-29T01:58:12;16.90;1.00
21849;DHT22;11089;49.852;19.700;2022-07-29T02:01:14;16.70;1.00
21849;DHT22;11089;49.852;19.700;2022-07-29T02:04:18;16.50;1.00
21849;DHT22;11089;49.852;19.700;2022-07-29T02:07:21;16.40;1.00
21849;DHT22;11089;49.852;19.700;2022-07-29T02:10:28;16.40;1.00
21849;DHT22;11089;49.852;19.700;2022-07-29T02:13:31;16.30;1.00
21849;DHT22;11089;49.852;19.700;2022-07-29T02:16:36;16.30;1.00
21849;DHT22;11089;49.852;19.700;2022-07-29T02:19:38;16.10;99.90
21849;DHT22;11089;49.852;19.700;2022-07-29T02:22:41;16.10;1.00
21849;DHT22;11089;49.852;19.700;2022-07-29T02:25:43;16.10;99.90
21849;DHT22;11089;49.852;19.700;2022-07-29T02:28:44;16.10;1.00
21849;DHT22;11089;49.852;19.700;2022-07-29T02:31:47;16.10;1.00
21849;DHT22;11089;49.852;19.700;2022-07-29T02:34:50;16.10;99.90
21849;DHT22;11089;49.852;19.700;2022-07-29T02:37:52;16.10;99.90
21849;DHT22;11089;49.852;19.700;2022-07-29T02:41:12;16.20;99.90
21849;DHT22;11089;49.852;19.700;2022-07-29T02:44:16;16.10;99.90
21849;DHT22;11089;49.852;19.700;2022-07-29T02:47:19;16.00;42.00
21849;DHT22;11089;49.852;19.700;2022-07-29T02:50:34;15.80;99.90
21849;DHT22;11089;49.852;19.700;2022-07-29T02:53:35;15.70;99.90
21849;DHT22;11089;49.852;19.700;2022-07-29T02:56:39;15.50;99.90
21849;DHT22;11089;49.852;19.700;2022-07-29T02:59:42;15.60;99.90
21849;DHT22;11089;49.852;19.700;2022-07-29T03:02:45;15.50;1.00
21849;DHT22;11089;49.852;19.700;2022-07-29T03:05:48;15.50;1.00
21849;DHT22;11089;49.852;19.700;2022-07-29T03:08:50;15.50;1.00
21849;DHT22;11089;49.852;19.700;2022-07-29T03:11:51;15.50;1.00
21849;DHT22;11089;49.852;19.700;2022-07-29T03:14:55;15.50;1.00
21849;DHT22;11089;49.852;19.700;2022-07-29T03:17:57;15.40;1.00
21849;DHT22;11089;49.852;19.700;2022-07-29T03:20:58;15.40;1.00
21849;DHT22;11089;49.852;19.700;2022-07-29T03:23:59;15.40;1.00
21849;DHT22;11089;49.852;19.700;2022-07-29T03:27:01;15.50;1.00
21849;DHT22;11089;49.852;19.700;2022-07-29T03:30:03;15.50;1.00
21849;DHT22;11089;49.852;19.700;2022-07-29T03:33:04;15.50;1.00
21849;DHT22;11089;49.852;19.700;2022-07-29T03:36:05;15.50;1.00
21849;DHT22;11089;49.852;19.700;2022-07-29T03:39:08;15.40;1.00
21849;DHT22;11089;49.852;19.700;2022-07-29T03:42:12;15.30;1.00
21849;DHT22;11089;49.852;19.700;2022-07-29T03:45:17;15.50;1.00
21849;DHT22;11089;49.852;19.700;2022-07-29T03:48:21;15.50;1.00
21849;DHT22;11089;49.852;19.700;2022-07-29T03:51:22;15.60;1.00
21849;DHT22;11089;49.852;19.700;2022-07-29T03:54:23;15.60;1.00
21849;DHT22;11089;49.852;19.700;2022-07-29T03:57:26;15.60;1.00
21849;DHT22;11089;49.852;19.700;2022-07-29T04:00:28;15.50;1.00
21849;DHT22;11089;49.852;19.700;2022-07-29T04:03:30;15.40;1.00
21849;DHT22;11089;49.852;19.700;2022-07-29T04:06:42;15.40;1.00
21849;DHT22;11089;49.852;19.700;2022-07-29T04:09:43;15.30;1.00
21849;DHT22;11089;49.852;19.700;2022-07-29T04:12:44;15.40;1.00
21849;DHT22;11089;49.852;19.700;2022-07-29T04:15:45;15.50;1.00
21849;DHT22;11089;49.852;19.700;2022-07-29T04:18:46;15.40;1.00
21849;DHT22;11089;49.852;19.700;2022-07-29T04:21:47;15.60;1.00
21849;DHT22;11089;49.852;19.700;2022-07-29T04:24:48;15.50;1.00
21849;DHT22;11089;49.852;19.700;2022-07-29T04:27:48;15.50;1.00
21849;DHT22;11089;49.852;19.700;2022-07-29T04:31:03;15.60;1.00
21849;DHT22;11089;49.852;19.700;2022-07-29T04:34:04;15.70;1.00
21849;DHT22;11089;49.852;19.700;2022-07-29T04:37:05;15.80;1.00
21849;DHT22;11089;49.852;19.700;2022-07-29T04:40:06;15.70;1.00
21849;DHT22;11089;49.852;19.700;2022-07-29T04:43:07;15.70;1.00
21849;DHT22;11089;49.852;19.700;2022-07-29T04:46:08;15.80;1.00
21849;DHT22;11089;49.852;19.700;2022-07-29T04:49:08;15.80;1.00
21849;DHT22;11089;49.852;19.700;2022-07-29T04:52:09;15.80;1.00
21849;DHT22;11089;49.852;19.700;2022-07-29T04:55:10;15.80;1.00
21849;DHT22;11089;49.852;19.700;2022-07-29T04:58:11;16.00;1.00
21849;DHT22;11089;49.852;19.700;2022-07-29T05:01:12;16.10;1.00
21849;DHT22;11089;49.852;19.700;2022-07-29T05:04:14;15.90;1.00
21849;DHT22;11089;49.852;19.700;2022-07-29T05:07:16;16.00;1.00
21849;DHT22;11089;49.852;19.700;2022-07-29T05:10:17;16.20;1.00
21849;DHT22;11089;49.852;19.700;2022-07-29T05:13:18;16.30;1.00
21849;DHT22;11089;49.852;19.700;2022-07-29T05:16:18;16.50;1.00
21849;DHT22;11089;49.852;19.700;2022-07-29T05:19:19;16.50;1.00
21849;DHT22;11089;49.852;19.700;2022-07-29T05:22:21;16.50;1.00
21849;DHT22;11089;49.852;19.700;2022-07-29T05:25:21;16.60;1.00
21849;DHT22;11089;49.852;19.700;2022-07-29T05:28:22;16.70;1.00
21849;DHT22;11089;49.852;19.700;2022-07-29T05:31:23;16.70;1.00
21849;DHT22;11089;49.852;19.700;2022-07-29T05:34:24;16.80;1.00
21849;DHT22;11089;49.852;19.700;2022-07-29T05:37:25;16.90;1.00
21849;DHT22;11089;49.852;19.700;2022-07-29T05:40:26;17.00;1.00
21849;DHT22;11089;49.852;19.700;2022-07-29T05:43:30;17.10;1.00
21849;DHT22;11089;49.852;19.700;2022-07-29T05:46:31;17.20;1.00
21849;DHT22;11089;49.852;19.700;2022-07-29T05:49:32;17.40;1.00
21849;DHT22;11089;49.852;19.700;2022-07-29T05:52:33;17.50;1.00
21849;DHT22;11089;49.852;19.700;2022-07-29T05:55:34;17.60;99.90
21849;DHT22;11089;49.852;19.700;2022-07-29T05:58:35;17.70;99.90
21849;DHT22;11089;49.852;19.700;2022-07-29T06:01:36;17.80;99.90
21849;DHT22;11089;49.852;19.700;2022-07-29T06:04:39;17.90;99.90
21849;DHT22;11089;49.852;19.700;2022-07-29T06:07:40;17.90;99.90
21849;DHT22;11089;49.852;19.700;2022-07-29T06:10:41;18.00;99.90
21849;DHT22;11089;49.852;19.700;2022-07-29T06:13:42;18.00;36.40
21849;DHT22;11089;49.852;19.700;2022-07-29T06:16:43;18.20;1.00
21849;DHT22;11089;49.852;19.700;2022-07-29T06:19:45;18.40;1.00
21849;DHT22;11089;49.852;19.700;2022-07-29T06:22:46;18.50;99.90
21849;DHT22;11089;49.852;19.700;2022-07-29T06:25:47;18.60;1.00
21849;DHT22;11089;49.852;19.700;2022-07-29T06:28:49;18.70;1.00
21849;DHT22;11089;49.852;19.700;2022-07-29T06:31:50;18.70;1.00
21849;DHT22;11089;49.852;19.700;2022-07-29T06:34:51;18.90;1.00
21849;DHT22;11089;49.852;19.700;2022-07-29T06:37:52;19.00;1.00
21849;DHT22;11089;49.852;19.700;2022-07-29T06:40:53;19.20;1.00
21849;DHT22;11089;49.852;19.700;2022-07-29T06:44:04;19.30;1.00
21849;DHT22;11089;49.852;19.700;2022-07-29T06:47:05;19.40;1.00
21849;DHT22;11089;49.852;19.700;2022-07-29T06:50:06;19.50;1.00
21849;DHT22;11089;49.852;19.700;2022-07-29T06:53:07;19.70;99.90
21849;DHT22;11089;49.852;19.700;2022-07-29T06:56:08;19.80;1.00
21849;DHT22;11089;49.852;19.700;2022-07-29T06:59:10;19.90;1.00
21849;DHT22;11089;49.852;19.700;2022-07-29T07:02:12;20.00;1.00
21849;DHT22;11089;49.852;19.700;2022-07-29T07:05:13;20.20;39.00
21849;DHT22;11089;49.852;19.700;2022-07-29T07:08:15;20.30;1.00
21849;DHT22;11089;49.852;19.700;2022-07-29T07:11:20;20.40;1.00
21849;DHT22;11089;49.852;19.700;2022-07-29T07:14:21;20.50;1.00
21849;DHT22;11089;49.852;19.700;2022-07-29T07:17:22;20.70;99.90
21849;DHT22;11089;49.852;19.700;2022-07-29T07:20:23;20.70;1.00
21849;DHT22;11089;49.852;19.700;2022-07-29T07:23:24;20.80;1.00
21849;DHT22;11089;49.852;19.700;2022-07-29T07:26:25;20.90;99.90
21849;DHT22;11089;49.852;19.700;2022-07-29T07:29:26;21.10;1.00
21849;DHT22;11089;49.852;19.700;2022-07-29T07:32:27;21.20;99.90
21849;DHT22;11089;49.852;19.700;2022-07-29T07:35:29;21.30;1.00
21849;DHT22;11089;49.852;19.700;2022-07-29T07:38:30;21.40;1.00
21849;DHT22;11089;49.852;19.700;2022-07-29T07:41:31;21.60;99.90
21849;DHT22;11089;49.852;19.700;2022-07-29T07:44:32;21.70;99.90
21849;DHT22;11089;49.852;19.700;2022-07-29T07:47:33;21.80;1.00
21849;DHT22;11089;49.852;19.700;2022-07-29T07:50:34;22.00;1.00
21849;DHT22;11089;49.852;19.700;2022-07-29T07:53:34;22.20;1.00
21849;DHT22;11089;49.852;19.700;2022-07-29T07:56:35;22.30;52.00
21849;DHT22;11089;49.852;19.700;2022-07-29T07:59:37;22.50;1.00
21849;DHT22;11089;49.852;19.700;2022-07-29T08:02:38;22.60;99.90
21849;DHT22;11089;49.852;19.700;2022-07-29T08:05:40;22.80;1.00
21849;DHT22;11089;49.852;19.700;2022-07-29T08:08:41;23.00;1.00
21849;DHT22;11089;49.852;19.700;2022-07-29T08:11:42;23.00;99.90
21849;DHT22;11089;49.852;19.700;2022-07-29T08:14:43;23.00;1.00
21849;DHT22;11089;49.852;19.700;2022-07-29T08:17:44;23.30;1.00
21849;DHT22;11089;49.852;19.700;2022-07-29T08:20:46;23.50;1.00
21849;DHT22;11089;49.852;19.700;2022-07-29T08:23:47;23.70;1.00
21849;DHT22;11089;49.852;19.700;2022-07-29T08:26:51;23.90;1.00
21849;DHT22;11089;49.852;19.700;2022-07-29T08:29:52;23.80;1.00
21849;DHT22;11089;49.852;19.700;2022-07-29T08:32:53;24.10;1.00
21849;DHT22;11089;49.852;19.700;2022-07-29T08:35:54;24.40;1.00
21849;DHT22;11089;49.852;19.700;2022-07-29T08:38:55;24.30;99.90
21849;DHT22;11089;49.852;19.700;2022-07-29T08:41:56;24.70;1.00
21849;DHT22;11089;49.852;19.700;2022-07-29T08:44:58;24.90;99.90
21849;DHT22;11089;49.852;19.700;2022-07-29T08:47:59;25.10;99.90
21849;DHT22;11089;49.852;19.700;2022-07-29T08:51:00;25.10;1.00
21849;DHT22;11089;49.852;19.700;2022-07-29T08:54:02;25.10;99.90
21849;DHT22;11089;49.852;19.700;2022-07-29T08:57:04;25.20;1.00
21849;DHT22;11089;49.852;19.700;2022-07-29T09:00:06;25.40;1.00
21849;DHT22;11089;49.852;19.700;2022-07-29T09:03:10;25.70;1.00
21849;DHT22;11089;49.852;19.700;2022-07-29T09:06:14;25.60;1.00
21849;DHT22;11089;49.852;19.700;2022-07-29T09:09:15;25.70;1.00
21849;DHT22;11089;49.852;19.700;2022-07-29T09:12:16;26.00;1.00
21849;DHT22;11089;49.852;19.700;2022-07-29T09:15:18;26.10;1.00
21849;DHT22;11089;49.852;19.700;2022-07-29T09:21:40;27.00;1.00
21849;DHT22;11089;49.852;19.700;2022-07-29T09:24:55;27.10;1.00
21849;DHT22;11089;49.852;19.700;2022-07-29T09:28:09;27.10;1.00
21849;DHT22;11089;49.852;19.700;2022-07-29T09:31:11;26.50;1.00
21849;DHT22;11089;49.852;19.700;2022-07-29T09:34:14;26.30;1.00
21849;DHT22;11089;49.852;19.700;2022-07-29T09:37:36;26.30;1.00
21849;DHT22;11089;49.852;19.700;2022-07-29T09:40:39;26.80;1.00
21849;DHT22;11089;49.852;19.700;2022-07-29T09:43:40;27.40;1.00
21849;DHT22;11089;49.852;19.700;2022-07-29T09:47:00;27.70;1.00
21849;DHT22;11089;49.852;19.700;2022-07-29T09:50:08;27.90;99.90
21849;DHT22;11089;49.852;19.700;2022-07-29T09:53:09;28.20;99.90
21849;DHT22;11089;49.852;19.700;2022-07-29T09:56:10;28.00;99.90
21849;DHT22;11089;49.852;19.700;2022-07-29T09:59:11;28.30;99.90
21849;DHT22;11089;49.852;19.700;2022-07-29T10:02:13;28.50;99.90
21849;DHT22;11089;49.852;19.700;2022-07-29T10:05:25;28.80;99.90
21849;DHT22;11089;49.852;19.700;2022-07-29T10:08:26;28.90;99.90
21849;DHT22;11089;49.852;19.700;2022-07-29T10:11:27;29.00;99.90
21849;DHT22;11089;49.852;19.700;2022-07-29T10:14:30;28.60;99.90
21849;DHT22;11089;49.852;19.700;2022-07-29T10:17:32;28.50;99.90
21849;DHT22;11089;49.852;19.700;2022-07-29T10:20:33;28.30;99.90
21849;DHT22;11089;49.852;19.700;2022-07-29T10:23:34;28.60;99.90
21849;DHT22;11089;49.852;19.700;2022-07-29T10:26:36;28.20;99.90
21849;DHT22;11089;49.852;19.700;2022-07-29T10:29:41;28.40;99.90
21849;DHT22;11089;49.852;19.700;2022-07-29T10:42:21;29.20;99.90
21849;DHT22;11089;49.852;19.700;2022-07-29T10:45:24;29.60;99.90
21849;DHT22;11089;49.852;19.700;2022-07-29T10:48:26;29.50;99.90
21849;DHT22;11089;49.852;19.700;2022-07-29T10:54:50;29.00;99.90
21849;DHT22;11089;49.852;19.700;2022-07-29T10:58:15;29.00;99.90
21849;DHT22;11089;49.852;19.700;2022-07-29T11:01:30;29.30;99.90
21849;DHT22;11089;49.852;19.700;2022-07-29T11:20:58;30.90;99.90
21849;DHT22;11089;49.852;19.700;2022-07-29T11:24:13;30.40;99.90
21849;DHT22;11089;49.852;19.700;2022-07-29T11:27:17;30.50;99.90
21849;DHT22;11089;49.852;19.700;2022-07-29T11:30:18;30.30;99.90
21849;DHT22;11089;49.852;19.700;2022-07-29T11:33:34;30.30;99.90
21849;DHT22;11089;49.852;19.700;2022-07-29T11:36:35;30.40;99.90
21849;DHT22;11089;49.852;19.700;2022-07-29T11:39:37;30.90;99.90
21849;DHT22;11089;49.852;19.700;2022-07-29T11:42:40;31.10;99.90
21849;DHT22;11089;49.852;19.700;2022-07-29T11:45:46;31.40;99.90
21849;DHT22;11089;49.852;19.700;2022-07-29T11:48:47;31.20;99.90
21849;DHT22;11089;49.852;19.700;2022-07-29T11:51:55;31.20;99.90
21849;DHT22;11089;49.852;19.700;2022-07-29T11:54:57;31.60;99.90
21849;DHT22;11089;49.852;19.700;2022-07-29T11:58:01;31.50;99.90
21849;DHT22;11089;49.852;19.700;2022-07-29T12:01:02;31.60;99.90
21849;DHT22;11089;49.852;19.700;2022-07-29T12:04:06;31.80;99.90
21849;DHT22;11089;49.852;19.700;2022-07-29T12:07:07;32.10;99.90
21849;DHT22;11089;49.852;19.700;2022-07-29T12:10:08;32.30;99.90
21849;DHT22;11089;49.852;19.700;2022-07-29T12:13:10;32.30;99.90
21849;DHT22;11089;49.852;19.700;2022-07-29T12:16:11;32.30;99.90
21849;DHT22;11089;49.852;19.700;2022-07-29T12:19:12;32.20;99.90
21849;DHT22;11089;49.852;19.700;2022-07-29T12:22:27;32.00;99.90
21849;DHT22;11089;49.852;19.700;2022-07-29T12:25:33;32.20;99.90
21849;DHT22;11089;49.852;19.700;2022-07-29T12:28:39;32.00;99.90
21849;DHT22;11089;49.852;19.700;2022-07-29T12:31:39;32.10;99.90
21849;DHT22;11089;49.852;19.700;2022-07-29T12:34:40;32.10;99.90
21849;DHT22;11089;49.852;19.700;2022-07-29T12:37:44;32.10;99.90
21849;DHT22;11089;49.852;19.700;2022-07-29T12:40:47;31.90;99.90
21849;DHT22;11089;49.852;19.700;2022-07-29T12:43:54;31.60;99.90
21849;DHT22;11089;49.852;19.700;2022-07-29T12:47:03;31.20;99.90
21849;DHT22;11089;49.852;19.700;2022-07-29T12:50:12;31.30;99.90
21849;DHT22;11089;49.852;19.700;2022-07-29T12:53:18;31.10;99.90
21849;DHT22;11089;49.852;19.700;2022-07-29T12:56:19;30.90;99.90
21849;DHT22;11089;49.852;19.700;2022-07-29T12:59:21;31.00;99.90
21849;DHT22;11089;49.852;19.700;2022-07-29T13:02:23;30.90;99.90
21849;DHT22;11089;49.852;19.700;2022-07-29T13:05:24;31.10;99.90
21849;DHT22;11089;49.852;19.700;2022-07-29T13:08:39;31.20;99.90
21849;DHT22;11089;49.852;19.700;2022-07-29T13:12:06;31.40;99.90
21849;DHT22;11089;49.852;19.700;2022-07-29T13:15:14;31.10;99.90
21849;DHT22;11089;49.852;19.700;2022-07-29T13:18:31;31.30;99.90
21849;DHT22;11089;49.852;19.700;2022-07-29T13:21:32;31.60;99.90
21849;DHT22;11089;49.852;19.700;2022-07-29T13:24:34;31.30;99.90
21849;DHT22;11089;49.852;19.700;2022-07-29T13:27:36;30.80;99.90
21849;DHT22;11089;49.852;19.700;2022-07-29T13:30:39;30.60;99.90
21849;DHT22;11089;49.852;19.700;2022-07-29T13:33:41;30.70;99.90
21849;DHT22;11089;49.852;19.700;2022-07-29T13:36:42;30.70;99.90
21849;DHT22;11089;49.852;19.700;2022-07-29T13:39:43;30.70;99.90
21849;DHT22;11089;49.852;19.700;2022-07-29T13:42:44;30.60;99.90
21849;DHT22;11089;49.852;19.700;2022-07-29T13:45:45;30.40;99.90
21849;DHT22;11089;49.852;19.700;2022-07-29T13:48:46;30.20;99.90
21849;DHT22;11089;49.852;19.700;2022-07-29T13:51:48;30.00;99.90
21849;DHT22;11089;49.852;19.700;2022-07-29T13:54:49;30.00;99.90
21849;DHT22;11089;49.852;19.700;2022-07-29T13:57:50;30.00;99.90
21849;DHT22;11089;49.852;19.700;2022-07-29T14:00:51;29.80;99.90
21849;DHT22;11089;49.852;19.700;2022-07-29T14:03:52;29.50;99.90
21849;DHT22;11089;49.852;19.700;2022-07-29T14:06:53;29.30;99.90
21849;DHT22;11089;49.852;19.700;2022-07-29T14:09:54;29.30;99.90
21849;DHT22;11089;49.852;19.700;2022-07-29T14:12:54;29.20;99.90
21849;DHT22;11089;49.852;19.700;2022-07-29T14:15:55;29.00;99.90
21849;DHT22;11089;49.852;19.700;2022-07-29T14:18:56;29.10;99.90
21849;DHT22;11089;49.852;19.700;2022-07-29T14:21:57;28.70;99.90
21849;DHT22;11089;49.852;19.700;2022-07-29T14:24:58;28.50;99.90
21849;DHT22;11089;49.852;19.700;2022-07-29T14:27:59;28.40;99.90
21849;DHT22;11089;49.852;19.700;2022-07-29T14:31:00;28.10;99.90
21849;DHT22;11089;49.852;19.700;2022-07-29T14:34:01;27.90;99.90
21849;DHT22;11089;49.852;19.700;2022-07-29T14:37:03;28.00;99.90
21849;DHT22;11089;49.852;19.700;2022-07-29T14:40:07;27.80;99.90
21849;DHT22;11089;49.852;19.700;2022-07-29T14:43:08;27.70;99.90
21849;DHT22;11089;49.852;19.700;2022-07-29T14:46:09;27.60;99.90
21849;DHT22;11089;49.852;19.700;2022-07-29T14:49:10;27.60;99.90
21849;DHT22;11089;49.852;19.700;2022-07-29T14:52:11;27.50;99.90
21849;DHT22;11089;49.852;19.700;2022-07-29T14:55:12;27.50;99.90
21849;DHT22;11089;49.852;19.700;2022-07-29T14:58:13;27.60;99.90
21849;DHT22;11089;49.852;19.700;2022-07-29T15:01:14;27.30;99.90
21849;DHT22;11089;49.852;19.700;2022-07-29T15:04:15;27.20;99.90
21849;DHT22;11089;49.852;19.700;2022-07-29T15:07:16;26.70;1.00
21849;DHT22;11089;49.852;19.700;2022-07-29T15:10:17;26.50;1.00
21849;DHT22;11089;49.852;19.700;2022-07-29T15:13:18;26.40;99.90
21849;DHT22;11089;49.852;19.700;2022-07-29T15:16:19;26.00;99.90
21849;DHT22;11089;49.852;19.700;2022-07-29T15:19:20;25.90;1.00
21849;DHT22;11089;49.852;19.700;2022-07-29T15:22:21;25.80;99.90
21849;DHT22;11089;49.852;19.700;2022-07-29T15:25:23;25.60;1.00
21849;DHT22;11089;49.852;19.700;2022-07-29T15:28:24;25.40;99.90
21849;DHT22;11089;49.852;19.700;2022-07-29T15:31:25;25.30;1.00
21849;DHT22;11089;49.852;19.700;2022-07-29T15:34:26;25.20;1.00
21849;DHT22;11089;49.852;19.700;2022-07-29T15:37:27;24.80;99.90
21849;DHT22;11089;49.852;19.700;2022-07-29T15:40:29;24.80;31.20
21849;DHT22;11089;49.852;19.700;2022-07-29T15:43:30;24.50;1.00
21849;DHT22;11089;49.852;19.700;2022-07-29T15:46:31;24.50;99.90
21849;DHT22;11089;49.852;19.700;2022-07-29T15:49:46;24.30;1.00
21849;DHT22;11089;49.852;19.700;2022-07-29T15:52:47;23.80;1.00
21849;DHT22;11089;49.852;19.700;2022-07-29T15:55:48;24.00;99.90
21849;DHT22;11089;49.852;19.700;2022-07-29T15:58:49;23.70;99.90
21849;DHT22;11089;49.852;19.700;2022-07-29T16:01:50;23.80;99.90
21849;DHT22;11089;49.852;19.700;2022-07-29T16:04:51;24.10;1.00
21849;DHT22;11089;49.852;19.700;2022-07-29T16:07:52;24.10;99.90
21849;DHT22;11089;49.852;19.700;2022-07-29T16:10:53;23.60;99.90
21849;DHT22;11089;49.852;19.700;2022-07-29T16:13:54;23.40;1.00
21849;DHT22;11089;49.852;19.700;2022-07-29T16:16:55;23.00;1.00
21849;DHT22;11089;49.852;19.700;2022-07-29T16:19:56;22.70;1.00
21849;DHT22;11089;49.852;19.700;2022-07-29T16:22:57;22.50;99.90
21849;DHT22;11089;49.852;19.700;2022-07-29T16:25:58;22.40;1.00
21849;DHT22;11089;49.852;19.700;2022-07-29T16:28:59;22.20;1.00
21849;DHT22;11089;49.852;19.700;2022-07-29T16:32:00;22.10;1.00
21849;DHT22;11089;49.852;19.700;2022-07-29T16:35:01;22.00;1.00
21849;DHT22;11089;49.852;19.700;2022-07-29T16:38:04;21.90;1.00
21849;DHT22;11089;49.852;19.700;2022-07-29T16:41:05;21.80;1.00
21849;DHT22;11089;49.852;19.700;2022-07-29T16:44:06;22.10;1.00
21849;DHT22;11089;49.852;19.700;2022-07-29T16:47:07;22.40;1.00
21849;DHT22;11089;49.852;19.700;2022-07-29T16:50:09;22.30;1.00
21849;DHT22;11089;49.852;19.700;2022-07-29T16:53:10;22.40;1.00
21849;DHT22;11089;49.852;19.700;2022-07-29T16:56:11;22.00;1.00
21849;DHT22;11089;49.852;19.700;2022-07-29T16:59:12;21.80;1.00
21849;DHT22;11089;49.852;19.700;2022-07-29T17:02:13;21.90;1.00
21849;DHT22;11089;49.852;19.700;2022-07-29T17:05:14;22.10;99.90
21849;DHT22;11089;49.852;19.700;2022-07-29T17:08:15;22.00;1.00
21849;DHT22;11089;49.852;19.700;2022-07-29T17:11:16;22.00;1.00
21849;DHT22;11089;49.852;19.700;2022-07-29T17:14:18;21.60;1.00
21849;DHT22;11089;49.852;19.700;2022-07-29T17:17:19;21.90;99.90
21849;DHT22;11089;49.852;19.700;2022-07-29T17:20:20;21.80;1.00
21849;DHT22;11089;49.852;19.700;2022-07-29T17:23:21;21.80;1.00
21849;DHT22;11089;49.852;19.700;2022-07-29T17:26:22;21.70;99.90
21849;DHT22;11089;49.852;19.700;2022-07-29T17:29:23;21.80;1.00
21849;DHT22;11089;49.852;19.700;2022-07-29T17:32:24;21.90;99.90
21849;DHT22;11089;49.852;19.700;2022-07-29T17:35:25;21.90;99.90
21849;DHT22;11089;49.852;19.700;2022-07-29T17:38:40;21.70;1.00
21849;DHT22;11089;49.852;19.700;2022-07-29T17:41:41;21.50;99.90
21849;DHT22;11089;49.852;19.700;2022-07-29T17:44:44;21.10;1.00
21849;DHT22;11089;49.852;19.700;2022-07-29T17:47:45;21.00;1.00
21849;DHT22;11089;49.852;19.700;2022-07-29T17:50:47;20.90;1.00
21849;DHT22;11089;49.852;19.700;2022-07-29T17:53:48;20.50;1.00
21849;DHT22;11089;49.852;19.700;2022-07-29T17:56:49;20.50;1.00
21849;DHT22;11089;49.852;19.700;2022-07-29T17:59:50;20.30;1.00
21849;DHT22;11089;49.852;19.700;2022-07-29T18:02:51;20.20;1.00
21849;DHT22;11089;49.852;19.700;2022-07-29T18:05:52;20.10;1.00
21849;DHT22;11089;49.852;19.700;2022-07-29T18:08:54;20.00;1.00
21849;DHT22;11089;49.852;19.700;2022-07-29T18:11:55;20.00;1.00
21849;DHT22;11089;49.852;19.700;2022-07-29T18:14:56;19.90;1.00
21849;DHT22;11089;49.852;19.700;2022-07-29T18:17:57;19.70;1.00
21849;DHT22;11089;49.852;19.700;2022-07-29T18:20:57;19.60;1.00
21849;DHT22;11089;49.852;19.700;2022-07-29T18:23:59;19.60;1.00
21849;DHT22;11089;49.852;19.700;2022-07-29T18:26:59;19.60;1.00
21849;DHT22;11089;49.852;19.700;2022-07-29T18:30:00;19.60;1.00
21849;DHT22;11089;49.852;19.700;2022-07-29T18:33:03;19.60;1.00
21849;DHT22;11089;49.852;19.700;2022-07-29T18:36:04;19.60;1.00
21849;DHT22;11089;49.852;19.700;2022-07-29T18:39:05;19.60;1.00
21849;DHT22;11089;49.852;19.700;2022-07-29T18:42:06;19.60;1.00
21849;DHT22;11089;49.852;19.700;2022-07-29T18:45:08;19.60;1.00
21849;DHT22;11089;49.852;19.700;2022-07-29T18:48:09;19.60;1.00
21849;DHT22;11089;49.852;19.700;2022-07-29T18:51:10;19.60;1.00
21849;DHT22;11089;49.852;19.700;2022-07-29T18:54:11;19.80;1.00
21849;DHT22;11089;49.852;19.700;2022-07-29T18:57:12;19.90;1.00
21849;DHT22;11089;49.852;19.700;2022-07-29T19:00:13;20.00;1.00
21849;DHT22;11089;49.852;19.700;2022-07-29T19:03:14;20.10;1.00
21849;DHT22;11089;49.852;19.700;2022-07-29T19:06:15;20.20;99.90
21849;DHT22;11089;49.852;19.700;2022-07-29T19:09:16;20.20;99.90
21849;DHT22;11089;49.852;19.700;2022-07-29T19:12:17;20.10;1.00
21849;DHT22;11089;49.852;19.700;2022-07-29T19:15:19;20.00;1.00
21849;DHT22;11089;49.852;19.700;2022-07-29T19:18:20;20.20;83.00
21849;DHT22;11089;49.852;19.700;2022-07-29T19:21:21;20.10;1.00
21849;DHT22;11089;49.852;19.700;2022-07-29T19:24:23;20.10;99.90
21849;DHT22;11089;49.852;19.700;2022-07-29T19:27:24;19.90;99.90
21849;DHT22;11089;49.852;19.700;2022-07-29T19:30:25;20.10;54.00
21849;DHT22;11089;49.852;19.700;2022-07-29T19:33:27;20.00;99.90
21849;DHT22;11089;49.852;19.700;2022-07-29T19:36:28;19.80;1.00
21849;DHT22;11089;49.852;19.700;2022-07-29T19:39:30;19.80;99.90
21849;DHT22;11089;49.852;19.700;2022-07-29T19:42:31;19.80;38.60